Time;durP1;ratioP1;P1;durP2;ratioP2;P2;SDS_P1;SDS_P2;PMS_P1;PMS_P2;Temp;Humidity;BMP_temperature;BMP_pressure;BME280_temperature;BME280_humidity;BME280_pressure;Samples;Min_cycle;Max_cycle;Signal;HPM_P1;HPM_P2
2023/03/01 00:01:35;;;;;;;17.55;11.48;;;1.20;99.90;;;;;;5019198;28;20041;-57
2023/03/01 00:04:01;;;;;;;19.25;12.25;;;1.20;99.90;;;;;;5020558;28;20419;-54
2023/03/01 00:06:28;;;;;;;19.27;11.95;;;1.20;99.90;;;;;;5018527;28;20779;-56
2023/03/01 00:08:54;;;;;;;20.17;12.45;;;1.10;99.90;;;;;;5018961;28;20045;-57
2023/03/01 00:11:23;;;;;;;19.88;12.27;;;1.10;99.90;;;;;;5021896;28;20034;-57
2023/03/01 00:13:52;;;;;;;20.80;12.45;;;1.00;99.90;;;;;;5017556;28;20080;-57
2023/03/01 00:16:21;;;;;;;26.33;14.25;;;1.00;99.90;;;;;;5025939;28;20075;-56
2023/03/01 00:18:47;;;;;;;22.50;13.13;;;1.00;99.90;;;;;;5008311;28;20044;-56
2023/03/01 00:21:14;;;;;;;19.90;12.55;;;0.90;99.90;;;;;;5019740;28;20372;-57
2023/03/01 00:23:40;;;;;;;17.52;11.52;;;1.00;99.90;;;;;;5020403;28;20041;-56
2023/03/01 00:26:09;;;;;;;21.02;13.18;;;0.90;99.90;;;;;;5010945;28;20049;-56
2023/03/01 00:28:34;;;;;;;21.20;12.95;;;0.90;99.90;;;;;;5021116;28;20040;-57
2023/03/01 00:31:10;;;;;;;22.60;12.60;;;0.90;99.90;;;;;;5026360;28;20036;-57
2023/03/01 00:33:35;;;;;;;22.02;14.48;;;0.90;99.90;;;;;;5021019;28;20388;-56
2023/03/01 00:36:02;;;;;;;25.33;16.42;;;0.90;99.90;;;;;;5029519;28;20040;-56
2023/03/01 00:38:28;;;;;;;27.23;16.75;;;0.90;99.90;;;;;;5024280;28;20405;-58
2023/03/01 00:40:54;;;;;;;24.00;16.63;;;0.90;99.90;;;;;;5012979;28;20049;-56
2023/03/01 00:45:54;;;;;;;22.45;15.18;;;0.90;99.90;;;;;;5054212;28;20057;-62
2023/03/01 00:48:20;;;;;;;23.70;13.95;;;0.80;99.90;;;;;;5052908;28;20573;-61
2023/03/01 00:50:46;;;;;;;20.77;13.10;;;0.80;99.90;;;;;;5063983;28;20467;-61
2023/03/01 00:53:11;;;;;;;21.48;14.45;;;0.80;99.90;;;;;;5061291;28;20048;-62
2023/03/01 00:55:37;;;;;;;30.48;17.40;;;0.80;99.90;;;;;;5059049;28;20050;-59
2023/03/01 00:58:03;;;;;;;32.13;17.85;;;0.70;99.90;;;;;;5059406;28;20666;-61
2023/03/01 01:00:28;;;;;;;170.30;21.80;;;0.70;99.90;;;;;;5053433;28;20052;-61
2023/03/01 01:02:54;;;;;;;62.97;18.92;;;0.70;99.90;;;;;;5052504;28;20123;-61
2023/03/01 01:05:20;;;;;;;74.45;19.35;;;0.60;99.90;;;;;;5062827;28;20040;-60
2023/03/01 01:07:47;;;;;;;61.70;19.05;;;0.60;99.90;;;;;;5055707;28;20387;-59
2023/03/01 01:10:16;;;;;;;42.75;17.38;;;0.60;99.90;;;;;;5056372;28;20727;-58
2023/03/01 01:12:44;;;;;;;62.22;19.38;;;0.60;99.90;;;;;;5059134;28;20040;-59
2023/03/01 01:15:12;;;;;;;117.55;20.85;;;0.50;99.90;;;;;;5061585;28;20498;-61
2023/03/01 01:17:38;;;;;;;58.80;19.00;;;0.50;99.90;;;;;;5059963;28;20045;-61
2023/03/01 01:20:04;;;;;;;49.55;16.45;;;0.50;99.90;;;;;;5064099;28;20047;-61
2023/03/01 01:22:30;;;;;;;83.85;18.27;;;0.40;99.90;;;;;;5064727;28;20040;-60
2023/03/01 01:24:56;;;;;;;116.80;20.02;;;0.40;99.90;;;;;;5063634;28;21692;-62
2023/03/01 01:27:21;;;;;;;29.02;14.57;;;0.40;99.90;;;;;;5059907;28;20036;-61
2023/03/01 01:29:47;;;;;;;23.40;14.75;;;0.40;99.90;;;;;;5039601;28;20087;-59
2023/03/01 01:32:13;;;;;;;35.88;16.58;;;0.40;99.90;;;;;;5064147;28;20070;-62
2023/03/01 01:34:39;;;;;;;22.35;14.18;;;0.30;99.90;;;;;;5065062;28;20447;-61
2023/03/01 01:37:07;;;;;;;23.58;14.98;;;0.30;99.90;;;;;;5064773;28;20052;-61
2023/03/01 01:39:34;;;;;;;22.15;14.55;;;0.40;99.90;;;;;;5052296;28;20106;-59
2023/03/01 01:42:01;;;;;;;22.83;14.35;;;0.40;99.90;;;;;;5062071;28;20044;-59
2023/03/01 01:44:28;;;;;;;31.38;14.05;;;0.40;99.90;;;;;;5063263;28;20123;-60
2023/03/01 01:47:01;;;;;;;34.80;12.32;;;0.40;99.90;;;;;;5062526;28;20076;-60
2023/03/01 01:49:37;;;;;;;20.70;11.68;;;0.30;99.90;;;;;;5054823;28;20048;-60
2023/03/01 01:52:03;;;;;;;18.42;11.15;;;0.30;99.90;;;;;;5063864;28;20045;-61
2023/03/01 01:54:39;;;;;;;22.25;12.80;;;0.20;99.90;;;;;;5061580;28;20533;-60
2023/03/01 01:57:10;;;;;;;20.70;12.23;;;0.20;99.90;;;;;;5051844;28;20483;-60
2023/03/01 01:59:37;;;;;;;22.33;13.15;;;0.20;99.90;;;;;;5059477;28;20032;-61
2023/03/01 02:02:03;;;;;;;57.85;13.98;;;0.20;99.90;;;;;;5062445;28;20051;-61
2023/03/01 02:04:31;;;;;;;136.00;17.65;;;0.10;99.90;;;;;;5062410;28;20127;-60
2023/03/01 02:07:28;;;;;;;66.85;14.93;;;0.00;99.90;;;;;;5057043;28;20098;-60
2023/03/01 02:09:54;;;;;;;73.50;15.80;;;0.00;99.90;;;;;;5039053;28;20757;-62
2023/03/01 02:12:23;;;;;;;25.45;12.63;;;-0.10;99.90;;;;;;5065804;28;20051;-60
2023/03/01 02:14:49;;;;;;;93.10;17.70;;;0.00;99.90;;;;;;5060603;28;20040;-60
2023/03/01 02:17:16;;;;;;;66.05;15.85;;;0.00;99.90;;;;;;5063636;28;20477;-59
2023/03/01 02:19:48;;;;;;;36.85;13.13;;;0.00;99.90;;;;;;5052657;28;20044;-61
2023/03/01 02:22:33;;;;;;;67.53;13.88;;;-0.10;99.90;;;;;;5055135;28;20044;-61
2023/03/01 02:25:01;;;;;;;32.53;13.20;;;0.00;99.90;;;;;;5063352;28;20044;-61
2023/03/01 02:27:49;;;;;;;18.55;11.18;;;0.00;99.90;;;;;;5057554;28;20048;-60
2023/03/01 02:30:15;;;;;;;14.25;9.95;;;0.00;99.90;;;;;;5066088;28;20036;-59
2023/03/01 02:32:41;;;;;;;46.05;10.05;;;-0.10;99.90;;;;;;5065381;28;20561;-59
2023/03/01 02:35:14;;;;;;;71.15;13.48;;;-0.10;99.90;;;;;;5063714;28;20383;-60
2023/03/01 02:37:41;;;;;;;157.05;15.98;;;-0.30;99.90;;;;;;5059843;28;20049;-62
2023/03/01 02:40:12;;;;;;;26.77;10.60;;;-0.30;99.90;;;;;;5057179;28;20045;-60
2023/03/01 02:42:51;;;;;;;95.53;13.00;;;-0.40;99.90;;;;;;5061443;28;20068;-61
2023/03/01 02:45:17;;;;;;;47.43;9.97;;;-0.40;99.90;;;;;;5058790;28;20624;-60
2023/03/01 02:47:43;;;;;;;48.03;11.43;;;-0.50;99.90;;;;;;5063527;28;20037;-60
2023/03/01 02:50:35;;;;;;;63.42;11.77;;;-0.60;99.90;;;;;;5064029;28;20039;-61
2023/03/01 02:53:13;;;;;;;65.93;12.13;;;-0.60;99.90;;;;;;5028424;28;20056;-61
2023/03/01 02:55:40;;;;;;;42.83;10.03;;;-0.70;99.90;;;;;;5063579;28;20497;-60
2023/03/01 02:58:06;;;;;;;21.83;9.85;;;-0.70;99.90;;;;;;5057206;28;20747;-62
2023/03/01 03:00:45;;;;;;;90.07;13.32;;;-0.60;99.90;;;;;;5059348;28;20368;-61
2023/03/01 03:03:13;;;;;;;127.57;13.27;;;-0.60;99.90;;;;;;5058305;28;20066;-60
2023/03/01 03:05:39;;;;;;;196.23;17.33;;;-0.60;99.90;;;;;;5059068;28;20044;-61
2023/03/01 03:08:07;;;;;;;59.97;11.13;;;-0.80;99.90;;;;;;5053996;28;20035;-61
2023/03/01 03:10:36;;;;;;;84.20;14.27;;;-0.80;99.90;;;;;;5061353;28;20071;-59
2023/03/01 03:13:08;;;;;;;35.77;9.50;;;-0.70;99.90;;;;;;5057096;28;20641;-61
2023/03/01 03:15:35;;;;;;;50.10;11.33;;;-0.70;99.90;;;;;;5055304;28;20388;-61
2023/03/01 03:18:04;;;;;;;87.80;12.53;;;-0.60;99.90;;;;;;5055820;28;20040;-60
2023/03/01 03:20:30;;;;;;;131.33;16.03;;;-0.60;99.90;;;;;;5055753;28;20072;-61
2023/03/01 03:22:58;;;;;;;128.18;14.02;;;-0.60;99.90;;;;;;5061332;28;20182;-59
2023/03/01 03:25:25;;;;;;;35.97;9.60;;;-0.60;99.90;;;;;;5058908;28;20044;-61
2023/03/01 03:27:56;;;;;;;78.37;12.80;;;-0.70;99.90;;;;;;5055425;28;20032;-62
2023/03/01 03:30:26;;;;;;;182.77;17.53;;;-0.60;99.90;;;;;;5055088;28;20041;-62
2023/03/01 03:32:54;;;;;;;87.07;11.70;;;-0.60;99.90;;;;;;5062141;28;20056;-62
2023/03/01 03:35:32;;;;;;;218.67;20.47;;;-0.60;99.90;;;;;;5056476;28;20661;-62
2023/03/01 03:38:03;;;;;;;405.23;30.17;;;-0.70;99.90;;;;;;5060711;28;20130;-61
2023/03/01 03:40:40;;;;;;;235.10;23.13;;;-0.70;99.90;;;;;;5041714;28;20053;-61
2023/03/01 03:43:14;;;;;;;370.27;28.57;;;-0.70;99.90;;;;;;5055223;28;20044;-62
2023/03/01 03:45:41;;;;;;;244.73;23.13;;;-0.70;99.90;;;;;;5064283;28;20132;-59
2023/03/01 03:48:11;;;;;;;92.77;14.77;;;-0.70;99.90;;;;;;5059986;28;20592;-61
2023/03/01 03:50:39;;;;;;;216.80;22.60;;;-0.60;99.90;;;;;;5044521;28;20047;-59
2023/03/01 03:53:09;;;;;;;81.80;13.90;;;-0.60;99.90;;;;;;5052481;28;20726;-62
2023/03/01 03:55:38;;;;;;;55.97;14.17;;;-0.60;99.90;;;;;;5062835;28;20110;-60
2023/03/01 03:58:09;;;;;;;203.70;22.57;;;-0.60;99.90;;;;;;5056074;28;20048;-61
2023/03/01 04:00:40;;;;;;;24.60;10.70;;;-0.70;99.90;;;;;;5049527;28;20785;-61
2023/03/01 04:03:07;;;;;;;18.47;10.93;;;-0.70;99.90;;;;;;5057989;28;20139;-61
2023/03/01 04:05:33;;;;;;;138.50;17.73;;;-0.70;99.90;;;;;;5058942;28;20079;-61
2023/03/01 04:08:02;;;;;;;67.43;13.13;;;-0.80;99.90;;;;;;5056945;28;20062;-61
2023/03/01 04:10:30;;;;;;;132.77;16.90;;;-0.90;99.90;;;;;;5059729;28;20113;-58
2023/03/01 04:12:56;;;;;;;73.93;13.67;;;-1.10;99.90;;;;;;5056883;28;20462;-59
2023/03/01 04:15:23;;;;;;;38.43;13.50;;;-1.20;99.90;;;;;;5063097;28;20119;-60
2023/03/01 04:17:51;;;;;;;19.63;11.93;;;-1.30;99.90;;;;;;5060433;28;20106;-61
2023/03/01 04:20:26;;;;;;;14.83;9.90;;;-1.30;99.90;;;;;;5055897;28;20090;-60
2023/03/01 04:23:10;;;;;;;18.47;11.33;;;-1.30;99.90;;;;;;5060275;28;24197;-61
2023/03/01 04:25:41;;;;;;;15.70;9.48;;;-1.20;99.90;;;;;;5060885;28;20451;-61
2023/03/01 04:28:08;;;;;;;15.83;10.77;;;-1.20;99.90;;;;;;5057027;28;20066;-62
2023/03/01 04:30:36;;;;;;;20.90;12.57;;;-1.10;99.90;;;;;;5060436;28;20441;-61
2023/03/01 04:33:03;;;;;;;15.87;10.30;;;-1.20;99.90;;;;;;5064412;28;20079;-60
2023/03/01 04:35:30;;;;;;;16.80;10.37;;;-1.20;99.90;;;;;;5060989;28;20087;-60
2023/03/01 04:37:56;;;;;;;18.13;10.50;;;-1.20;99.90;;;;;;5057474;28;20059;-61
2023/03/01 04:40:22;;;;;;;31.90;14.90;;;-1.20;99.90;;;;;;5056508;28;20036;-62
2023/03/01 04:42:47;;;;;;;30.57;16.30;;;-1.20;99.90;;;;;;5060203;28;20530;-62
2023/03/01 04:45:13;;;;;;;60.97;17.83;;;-1.30;99.90;;;;;;5053147;28;20088;-62
2023/03/01 04:47:41;;;;;;;71.93;18.07;;;-1.20;99.90;;;;;;5056330;28;20049;-61
2023/03/01 04:50:07;;;;;;;66.60;15.67;;;-1.30;99.90;;;;;;5056014;28;20135;-60
2023/03/01 04:52:33;;;;;;;74.43;15.63;;;-1.30;99.90;;;;;;5073524;28;20053;-61
2023/03/01 04:54:59;;;;;;;128.40;20.17;;;-1.30;99.90;;;;;;5055680;28;20048;-61
2023/03/01 04:57:25;;;;;;;23.80;11.67;;;-1.40;99.90;;;;;;5053742;28;20036;-60
2023/03/01 04:59:51;;;;;;;24.33;12.73;;;-1.30;99.90;;;;;;5059355;28;20046;-62
2023/03/01 05:02:16;;;;;;;55.53;17.30;;;-1.30;99.90;;;;;;5054958;28;20561;-61
2023/03/01 05:04:42;;;;;;;27.67;12.57;;;-1.30;99.90;;;;;;5061122;28;20438;-61
2023/03/01 05:07:08;;;;;;;19.57;11.97;;;-1.40;99.90;;;;;;5060205;28;20071;-61
2023/03/01 05:09:34;;;;;;;17.13;11.63;;;-1.50;99.90;;;;;;5056901;28;20060;-61
2023/03/01 05:11:59;;;;;;;16.83;10.93;;;-1.50;99.90;;;;;;5055892;28;20408;-59
2023/03/01 05:14:25;;;;;;;18.13;11.57;;;-1.50;99.90;;;;;;5057217;28;20124;-61
2023/03/01 05:16:50;;;;;;;19.47;10.87;;;-1.40;99.90;;;;;;5055606;28;20044;-61
2023/03/01 05:19:17;;;;;;;17.90;11.93;;;-1.40;99.90;;;;;;5055791;28;20448;-61
2023/03/01 05:22:01;;;;;;;16.67;11.47;;;-1.40;99.90;;;;;;5055949;28;20044;-62
2023/03/01 05:24:28;;;;;;;21.70;12.63;;;-1.30;99.90;;;;;;5065354;28;20059;-59
2023/03/01 05:26:54;;;;;;;23.77;14.07;;;-1.30;99.90;;;;;;5057094;28;20052;-61
2023/03/01 05:29:27;;;;;;;25.57;14.07;;;-1.30;99.90;;;;;;5050972;28;20052;-60
2023/03/01 05:32:00;;;;;;;24.73;14.52;;;-1.30;99.90;;;;;;5052469;28;20483;-58
2023/03/01 05:34:32;;;;;;;27.35;14.60;;;-1.30;99.90;;;;;;5062629;28;20044;-60
2023/03/01 05:36:58;;;;;;;23.37;14.43;;;-1.30;99.90;;;;;;5059269;28;20051;-60
2023/03/01 05:39:26;;;;;;;22.17;14.13;;;-1.30;99.90;;;;;;5052741;28;20111;-60
2023/03/01 05:41:54;;;;;;;21.90;13.17;;;-1.30;99.90;;;;;;5060243;28;20067;-60
2023/03/01 05:44:20;;;;;;;29.87;17.50;;;-1.30;99.90;;;;;;5053893;28;20119;-61
2023/03/01 05:46:46;;;;;;;27.57;16.00;;;-1.30;99.90;;;;;;5058919;28;20040;-60
2023/03/01 05:49:15;;;;;;;26.47;16.13;;;-1.30;99.90;;;;;;5061960;28;20044;-60
2023/03/01 05:51:42;;;;;;;31.20;16.10;;;-1.30;99.90;;;;;;5062412;28;20400;-60
2023/03/01 05:54:09;;;;;;;25.47;15.40;;;-1.30;99.90;;;;;;5054956;28;20029;-59
2023/03/01 05:56:36;;;;;;;22.47;14.40;;;-1.40;99.90;;;;;;5055858;28;20071;-61
2023/03/01 05:59:04;;;;;;;25.47;14.37;;;-1.40;99.90;;;;;;5048273;28;20037;-62
2023/03/01 06:01:31;;;;;;;27.23;14.67;;;-1.40;99.90;;;;;;5056678;28;20056;-60
2023/03/01 06:03:57;;;;;;;23.43;14.77;;;-1.40;99.90;;;;;;5061386;28;20424;-61
2023/03/01 06:06:23;;;;;;;21.37;13.13;;;-1.40;99.90;;;;;;5061659;28;20128;-58
2023/03/01 06:08:49;;;;;;;26.23;14.80;;;-1.40;99.90;;;;;;5058838;28;20558;-61
2023/03/01 06:11:15;;;;;;;29.97;16.67;;;-1.40;99.90;;;;;;5061944;28;20044;-59
2023/03/01 06:13:42;;;;;;;28.30;17.30;;;-1.50;99.90;;;;;;5059981;28;20086;-61
2023/03/01 06:16:08;;;;;;;32.03;17.90;;;-1.50;99.90;;;;;;5065718;28;20541;-60
2023/03/01 06:18:34;;;;;;;25.97;16.00;;;-1.50;99.90;;;;;;5052435;28;20051;-61
2023/03/01 06:20:59;;;;;;;30.33;17.77;;;-1.50;99.90;;;;;;5057233;28;20041;-60
2023/03/01 06:23:25;;;;;;;30.77;17.33;;;-1.50;99.90;;;;;;5052069;28;20040;-62
2023/03/01 06:25:51;;;;;;;28.03;16.63;;;-1.50;99.90;;;;;;5057333;28;23429;-61
2023/03/01 06:28:17;;;;;;;19.43;12.57;;;-1.50;99.90;;;;;;5042639;28;20094;-62
2023/03/01 06:30:43;;;;;;;24.43;14.27;;;-1.60;99.90;;;;;;5055618;28;20123;-60
2023/03/01 06:33:08;;;;;;;23.63;14.27;;;-1.60;99.90;;;;;;5059277;28;20544;-62
2023/03/01 06:35:34;;;;;;;24.80;14.43;;;-1.50;99.90;;;;;;5050172;28;20041;-59
2023/03/01 06:38:02;;;;;;;19.73;13.20;;;-1.50;99.90;;;;;;5056798;28;20043;-60
2023/03/01 06:40:28;;;;;;;23.47;13.60;;;-1.50;99.90;;;;;;5054991;28;20131;-61
2023/03/01 06:42:54;;;;;;;20.17;12.27;;;-1.50;99.90;;;;;;5056783;28;20577;-61
2023/03/01 06:45:21;;;;;;;21.03;13.03;;;-1.50;99.90;;;;;;5058951;22;20038;-56
2023/03/01 06:47:47;;;;;;;17.17;10.47;;;-1.50;99.90;;;;;;5013606;28;20045;-56
2023/03/01 06:50:13;;;;;;;20.10;12.60;;;-1.50;99.90;;;;;;5024770;28;20038;-57
2023/03/01 06:52:39;;;;;;;18.10;11.23;;;-1.50;99.90;;;;;;5006061;28;20033;-56
2023/03/01 06:55:06;;;;;;;17.20;11.10;;;-1.60;99.90;;;;;;5014256;28;20042;-57
2023/03/01 06:57:32;;;;;;;16.87;11.47;;;-1.60;99.90;;;;;;5017981;28;20046;-57
2023/03/01 06:59:58;;;;;;;14.27;10.13;;;-1.60;99.90;;;;;;5012228;28;20053;-57
2023/03/01 07:02:24;;;;;;;14.70;10.33;;;-1.60;99.90;;;;;;5018524;28;20041;-57
2023/03/01 07:04:50;;;;;;;16.20;10.20;;;-1.60;99.90;;;;;;5005102;28;20037;-57
2023/03/01 07:07:17;;;;;;;14.73;9.30;;;-1.60;99.90;;;;;;5024387;28;20049;-57
2023/03/01 07:09:44;;;;;;;15.80;10.47;;;-1.40;99.90;;;;;;4989517;28;20038;-57
2023/03/01 07:12:11;;;;;;;32.17;19.37;;;-1.30;99.90;;;;;;5005265;28;20115;-57
2023/03/01 07:14:37;;;;;;;40.97;23.50;;;-1.20;99.90;;;;;;5012267;28;20053;-57
2023/03/01 07:17:03;;;;;;;47.23;27.50;;;-1.00;99.90;;;;;;5013667;28;20052;-57
2023/03/01 07:19:29;;;;;;;37.73;22.63;;;-0.90;99.90;;;;;;5017789;28;20046;-57
2023/03/01 07:21:55;;;;;;;40.40;22.33;;;-0.70;99.90;;;;;;5022410;28;20041;-58
2023/03/01 07:24:21;;;;;;;33.73;19.47;;;-0.30;99.90;;;;;;5020691;28;20067;-58
2023/03/01 07:26:51;;;;;;;35.67;20.90;;;0.10;99.90;;;;;;5030716;28;20441;-58
2023/03/01 07:29:17;;;;;;;42.43;22.07;;;0.00;99.90;;;;;;5025055;28;20552;-57
2023/03/01 07:31:44;;;;;;;38.63;20.57;;;-0.20;99.90;;;;;;4980558;28;20121;-58
2023/03/01 07:34:10;;;;;;;30.17;18.70;;;-0.40;99.90;;;;;;5016075;28;20404;-58
2023/03/01 07:36:36;;;;;;;27.67;17.27;;;-0.50;99.90;;;;;;5017150;28;20045;-55
2023/03/01 07:39:03;;;;;;;29.90;17.40;;;-0.50;99.90;;;;;;5005995;28;20500;-55
2023/03/01 07:41:29;;;;;;;34.47;18.37;;;-0.50;99.90;;;;;;5012425;28;20041;-57
2023/03/01 07:43:55;;;;;;;31.20;18.73;;;-0.40;99.90;;;;;;5014035;28;20057;-56
2023/03/01 07:46:21;;;;;;;32.43;19.57;;;-0.40;99.90;;;;;;4995737;28;20103;-56
2023/03/01 07:48:47;;;;;;;31.07;17.67;;;-0.30;99.90;;;;;;5020786;28;20037;-57
2023/03/01 07:51:13;;;;;;;32.77;19.03;;;-0.30;99.90;;;;;;5030380;28;20065;-57
2023/03/01 07:53:38;;;;;;;28.83;16.37;;;-0.30;99.90;;;;;;5010818;28;20045;-58
2023/03/01 07:56:12;;;;;;;24.90;16.30;;;-0.20;99.90;;;;;;5004586;28;20045;-57
2023/03/01 07:58:40;;;;;;;25.13;15.23;;;-0.20;99.90;;;;;;5012647;28;20041;-57
2023/03/01 08:01:07;;;;;;;26.80;16.60;;;-0.10;99.90;;;;;;5019795;28;20057;-56
2023/03/01 08:03:34;;;;;;;28.40;18.63;;;0.00;99.90;;;;;;5024559;28;20038;-57
2023/03/01 08:06:01;;;;;;;29.27;18.37;;;0.10;99.90;;;;;;5017519;28;20116;-58
2023/03/01 08:08:27;;;;;;;26.27;17.73;;;0.20;99.90;;;;;;5018003;28;20092;-58
2023/03/01 08:10:57;;;;;;;25.10;15.93;;;0.40;99.90;;;;;;5018249;28;20302;-56
2023/03/01 08:13:23;;;;;;;21.03;15.00;;;0.70;99.90;;;;;;4998337;28;20045;-54
2023/03/01 08:15:49;;;;;;;23.03;16.23;;;0.60;99.90;;;;;;5002560;28;20072;-58
2023/03/01 08:18:16;;;;;;;22.50;14.50;;;0.70;99.90;;;;;;5018601;28;20037;-58
2023/03/01 08:20:42;;;;;;;18.37;13.30;;;0.80;99.90;;;;;;5019537;28;20261;-56
2023/03/01 08:23:07;;;;;;;18.23;13.30;;;0.90;99.90;;;;;;5009904;28;20167;-57
2023/03/01 08:25:33;;;;;;;19.47;14.33;;;1.00;99.90;;;;;;4990859;28;20043;-57
2023/03/01 08:27:59;;;;;;;18.87;14.17;;;1.10;99.90;;;;;;5025855;28;20068;-56
2023/03/01 08:30:25;;;;;;;21.15;14.07;;;1.30;99.90;;;;;;5005424;28;20029;-57
2023/03/01 08:32:51;;;;;;;21.20;15.45;;;1.50;99.90;;;;;;5016328;28;21483;-56
2023/03/01 08:35:17;;;;;;;20.70;14.85;;;1.60;99.90;;;;;;5019080;28;20408;-58
2023/03/01 08:37:43;;;;;;;20.48;13.75;;;1.80;99.90;;;;;;5009701;28;20415;-58
2023/03/01 08:40:13;;;;;;;21.00;14.57;;;1.90;99.90;;;;;;5022779;28;20042;-56
2023/03/01 08:42:39;;;;;;;20.40;13.80;;;2.00;99.90;;;;;;5041138;28;20048;-58
2023/03/01 08:45:06;;;;;;;19.08;13.30;;;2.20;99.90;;;;;;4990662;28;20098;-58
2023/03/01 08:47:33;;;;;;;19.23;13.95;;;2.30;99.90;;;;;;5008074;28;20092;-58
2023/03/01 08:49:59;;;;;;;21.52;13.98;;;2.40;99.90;;;;;;5000666;28;20045;-55
2023/03/01 08:52:25;;;;;;;21.02;14.23;;;2.50;99.90;;;;;;5002378;28;20075;-54
2023/03/01 08:54:51;;;;;;;23.15;15.15;;;2.60;99.90;;;;;;5001264;28;20103;-54
2023/03/01 08:57:17;;;;;;;21.42;14.50;;;2.60;99.90;;;;;;5014168;28;20046;-56
2023/03/01 08:59:43;;;;;;;19.38;14.30;;;2.90;99.90;;;;;;5023288;28;20470;-56
2023/03/01 09:02:14;;;;;;;19.80;14.43;;;3.00;99.90;;;;;;5017978;28;20061;-56
2023/03/01 09:04:41;;;;;;;22.88;15.82;;;3.10;99.90;;;;;;5021968;28;20038;-55
2023/03/01 09:07:07;;;;;;;17.85;13.98;;;3.20;99.90;;;;;;5004250;28;20048;-58
2023/03/01 09:09:32;;;;;;;23.08;14.57;;;3.30;99.90;;;;;;5010029;28;20038;-57
2023/03/01 09:11:58;;;;;;;24.33;15.63;;;3.40;99.90;;;;;;5026293;28;20037;-55
2023/03/01 09:14:24;;;;;;;26.10;17.42;;;3.60;99.90;;;;;;5007494;28;20038;-56
2023/03/01 09:16:50;;;;;;;25.38;16.95;;;3.70;99.90;;;;;;5007890;28;20175;-55
2023/03/01 09:19:16;;;;;;;29.00;18.70;;;3.80;99.90;;;;;;5008905;28;20045;-56
2023/03/01 09:21:51;;;;;;;30.02;16.05;;;3.80;99.90;;;;;;5015175;28;20045;-54
2023/03/01 09:24:18;;;;;;;26.15;18.20;;;3.90;99.90;;;;;;5021170;28;20064;-56
2023/03/01 09:26:46;;;;;;;31.02;19.17;;;4.10;99.90;;;;;;5027310;28;20036;-56
2023/03/01 09:29:12;;;;;;;24.95;17.13;;;4.20;99.90;;;;;;5018821;28;20168;-54
2023/03/01 09:31:38;;;;;;;25.35;16.52;;;4.40;99.90;;;;;;5023256;28;20499;-56
2023/03/01 09:34:04;;;;;;;23.30;15.80;;;4.50;99.90;;;;;;5011776;28;20741;-55
2023/03/01 09:36:30;;;;;;;23.35;14.80;;;4.60;99.90;;;;;;5021091;28;20140;-56
2023/03/01 09:38:57;;;;;;;23.58;16.45;;;4.70;99.90;;;;;;5022470;28;20201;-56
2023/03/01 09:42:01;;;;;;;22.02;14.75;;;4.80;99.90;;;;;;5034898;28;20041;-56
2023/03/01 09:44:38;;;;;;;21.00;14.38;;;4.90;99.90;;;;;;4990510;28;20440;-56
2023/03/01 09:47:05;;;;;;;20.48;13.30;;;5.10;99.90;;;;;;5028321;28;20504;-56
2023/03/01 09:49:34;;;;;;;19.42;13.00;;;5.30;99.90;;;;;;5030300;28;20784;-56
2023/03/01 09:52:20;;;;;;;17.10;11.57;;;5.40;99.90;;;;;;5029222;28;20155;-53
2023/03/01 09:54:49;;;;;;;20.10;12.45;;;5.60;99.90;;;;;;5023216;28;20041;-54
2023/03/01 09:57:26;;;;;;;19.40;12.25;;;5.70;99.90;;;;;;5027125;28;20524;-55
2023/03/01 09:59:59;;;;;;;16.63;11.95;;;5.90;99.90;;;;;;5011805;28;20147;-56
2023/03/01 10:03:09;;;;;;;18.25;11.82;;;6.00;99.90;;;;;;5030568;28;20049;-58
2023/03/01 10:05:44;;;;;;;18.05;12.70;;;6.20;99.90;;;;;;4973806;28;20098;-57
2023/03/01 10:08:32;;;;;;;14.60;11.20;;;6.30;99.90;;;;;;5022179;28;20455;-57
2023/03/01 10:10:58;;;;;;;18.45;12.45;;;6.40;99.90;;;;;;5033864;28;20627;-53
2023/03/01 10:13:34;;;;;;;15.38;11.40;;;6.60;99.90;;;;;;5027523;28;20143;-54
2023/03/01 10:16:16;;;;;;;19.05;12.63;;;6.70;99.90;;;;;;5011804;28;20045;-55
2023/03/01 10:18:46;;;;;;;15.90;11.60;;;6.80;99.90;;;;;;5014249;28;20412;-56
2023/03/01 10:21:18;;;;;;;19.40;13.07;;;6.90;99.90;;;;;;5028663;28;20096;-56
2023/03/01 10:23:44;;;;;;;20.23;13.68;;;7.00;99.90;;;;;;5031275;28;20120;-58
2023/03/01 10:26:38;;;;;;;17.45;13.40;;;7.20;99.90;;;;;;5026712;28;20124;-54
2023/03/01 10:29:10;;;;;;;20.20;13.98;;;7.30;99.90;;;;;;5039200;28;20153;-57
2023/03/01 10:31:43;;;;;;;21.65;15.20;;;7.40;99.90;;;;;;5030453;28;20041;-57
2023/03/01 10:34:22;;;;;;;17.98;13.73;;;7.50;99.90;;;;;;5031194;28;20096;-58
2023/03/01 10:36:52;;;;;;;21.85;16.88;;;7.70;99.90;;;;;;5018712;28;20524;-58
2023/03/01 10:39:23;;;;;;;21.40;15.90;;;7.90;99.90;;;;;;5020168;28;20038;-57
2023/03/01 10:42:38;;;;;;;21.52;15.10;;;8.10;99.90;;;;;;5024893;28;20113;-55
2023/03/01 10:45:29;;;;;;;20.65;15.52;;;8.20;99.90;;;;;;5020279;28;20041;-56
2023/03/01 10:48:13;;;;;;;19.55;15.65;;;8.30;99.90;;;;;;5022827;28;20079;-57
2023/03/01 10:50:44;;;;;;;18.83;14.52;;;8.30;99.90;;;;;;5023600;28;20594;-55
2023/03/01 10:53:26;;;;;;;25.55;16.85;;;8.50;99.90;;;;;;5025789;28;20045;-56
2023/03/01 10:56:00;;;;;;;22.75;16.63;;;8.60;99.90;;;;;;5029605;28;20041;-56
2023/03/01 10:58:27;;;;;;;22.58;16.75;;;8.60;99.90;;;;;;5022242;28;20128;-55
2023/03/01 11:00:54;;;;;;;25.92;16.70;;;8.70;99.90;;;;;;5008813;28;20416;-57
2023/03/01 11:03:38;;;;;;;21.27;17.08;;;8.70;99.90;;;;;;5020691;28;20045;-55
2023/03/01 11:06:13;;;;;;;21.65;16.63;;;8.90;99.90;;;;;;5024578;28;20260;-56
2023/03/01 11:08:47;;;;;;;24.05;18.05;;;9.00;99.90;;;;;;5023767;28;20052;-57
2023/03/01 11:11:24;;;;;;;21.52;17.38;;;9.00;99.90;;;;;;5019060;28;20042;-58
2023/03/01 11:13:57;;;;;;;22.60;16.27;;;9.00;99.90;;;;;;5018634;28;20037;-58
2023/03/01 11:16:35;;;;;;;23.90;18.55;;;9.00;99.90;;;;;;5021793;28;20048;-57
2023/03/01 11:19:21;;;;;;;22.80;15.82;;;9.00;99.90;;;;;;5009511;28;20048;-57
2023/03/01 11:22:02;;;;;;;20.15;15.65;;;9.20;99.90;;;;;;5021069;28;20129;-56
2023/03/01 11:24:37;;;;;;;19.67;15.05;;;9.20;99.90;;;;;;5027981;28;20133;-56
2023/03/01 11:27:08;;;;;;;17.60;14.85;;;9.30;99.90;;;;;;5022761;28;20056;-56
2023/03/01 11:29:43;;;;;;;16.85;13.43;;;9.30;99.90;;;;;;5021258;28;20408;-55
2023/03/01 11:32:13;;;;;;;21.77;15.00;;;9.40;99.90;;;;;;5015584;28;20045;-56
2023/03/01 11:34:56;;;;;;;20.48;15.15;;;9.50;99.90;;;;;;5023201;28;20050;-57
2023/03/01 11:37:43;;;;;;;20.60;14.68;;;9.60;99.90;;;;;;5021174;28;20045;-58
2023/03/01 11:40:21;;;;;;;16.80;13.45;;;9.60;99.90;;;;;;5023552;28;20041;-58
2023/03/01 11:43:15;;;;;;;16.60;13.80;;;9.60;99.90;;;;;;5019511;28;20516;-58
2023/03/01 11:45:50;;;;;;;17.23;14.33;;;9.60;99.90;;;;;;5019111;28;20302;-57
2023/03/01 11:48:38;;;;;;;15.70;12.98;;;9.60;99.90;;;;;;5019501;28;20303;-57
2023/03/01 11:51:37;;;;;;;18.52;14.18;;;9.70;99.90;;;;;;5020278;28;20551;-58
2023/03/01 11:54:24;;;;;;;18.25;14.07;;;9.70;99.90;;;;;;5020159;28;20124;-57
2023/03/01 11:57:37;;;;;;;20.83;13.70;;;9.80;99.90;;;;;;5020923;28;20377;-57
2023/03/01 12:00:40;;;;;;;16.92;13.40;;;9.90;99.90;;;;;;5026147;28;20077;-56
2023/03/01 12:03:28;;;;;;;19.13;13.90;;;10.00;99.90;;;;;;5019034;28;20111;-58
2023/03/01 12:06:09;;;;;;;17.35;13.20;;;10.10;99.90;;;;;;5021798;28;20041;-56
2023/03/01 12:08:49;;;;;;;16.15;12.10;;;10.20;99.90;;;;;;5013831;28;20053;-58
2023/03/01 12:11:14;;;;;;;17.02;13.05;;;10.20;99.90;;;;;;5021730;28;20033;-54
2023/03/01 12:13:46;;;;;;;15.07;12.07;;;10.00;99.30;;;;;;5024890;28;20128;-55
2023/03/01 12:16:20;;;;;;;15.07;12.23;;;10.00;98.70;;;;;;5007237;28;20045;-54
2023/03/01 12:19:24;;;;;;;18.08;14.38;;;10.10;99.50;;;;;;5024638;28;20407;-57
2023/03/01 12:22:04;;;;;;;18.48;13.23;;;10.10;99.00;;;;;;5012822;28;20135;-56
2023/03/01 12:24:41;;;;;;;15.90;12.90;;;10.30;99.40;;;;;;5019135;28;20053;-55
2023/03/01 12:27:42;;;;;;;16.13;13.18;;;10.20;98.70;;;;;;5024287;28;20123;-57
2023/03/01 12:30:42;;;;;;;17.52;12.07;;;10.30;98.90;;;;;;5020774;28;20049;-53
2023/03/01 12:33:40;;;;;;;18.23;14.05;;;10.40;98.80;;;;;;5016919;28;20056;-56
2023/03/01 12:36:30;;;;;;;15.48;13.18;;;10.40;98.70;;;;;;4990447;22;20084;-58
2023/03/01 12:39:04;;;;;;;17.02;13.57;;;10.50;98.80;;;;;;5039280;28;20565;-58
2023/03/01 12:41:51;;;;;;;14.73;11.95;;;10.50;98.90;;;;;;5031831;28;20384;-58
2023/03/01 12:44:38;;;;;;;16.55;12.25;;;10.70;99.00;;;;;;5022570;28;20169;-58
2023/03/01 12:49:38;;;;;;;16.73;12.63;;;10.80;98.30;;;;;;5046224;28;20037;-60
2023/03/01 12:52:17;;;;;;;16.20;12.10;;;10.90;98.30;;;;;;5058637;28;20127;-59
2023/03/01 12:54:45;;;;;;;15.65;12.30;;;10.80;97.60;;;;;;5058335;28;20116;-58